Time;durP1;ratioP1;P1;durP2;ratioP2;P2;SDS_P1;SDS_P2;PMS_P1;PMS_P2;Temp;Humidity;BMP_temperature;BMP_pressure;BME280_temperature;BME280_humidity;BME280_pressure;Samples;Min_cycle;Max_cycle;Signal;HPM_P1;HPM_P2
2022/05/02 00:00:07;;;;;;;;;;;;;;;;;;5036348;28;19917;-60
2022/05/02 00:02:32;;;;;;;;;;;;;;;;;;5035095;28;20678;-58
2022/05/02 00:05:02;;;;;;;;;;;;;;;;;;5036461;28;19921;-58
2022/05/02 00:07:30;;;;;;;;;;;;;;;;;;5015132;28;19920;-58
2022/05/02 00:09:57;;;;;;;;;;;;;;;;;;5036688;28;19931;-58
2022/05/02 00:12:27;;;;;;;;;;;;;;;;;;5013075;28;19920;-58
2022/05/02 00:14:52;;;;;;;;;;;;;;;;;;4999153;28;19916;-58
2022/05/02 00:17:56;;;;;;;;;;;;;;;;;;5016881;28;19964;-59
2022/05/02 00:20:05;;;;;;;;;;;;;;;;;;5032659;28;19920;-58
2022/05/02 00:22:31;;;;;;;;;;;;;;;;;;5016040;28;19928;-59
2022/05/02 00:24:58;;;;;;;;;;;;;;;;;;5034451;28;20609;-59
2022/05/02 00:27:24;;;;;;;;;;;;;;;;;;5013030;28;19927;-58
2022/05/02 00:29:49;;;;;;;;;;;;;;;;;;5035141;28;19925;-58
2022/05/02 00:32:16;;;;;;;;;;;;;;;;;;5034038;28;19917;-58
2022/05/02 00:34:42;;;;;;;;;;;;;;;;;;5013812;28;19916;-59
2022/05/02 00:37:07;;;;;;;;;;;;;;;;;;5034257;28;20261;-59
2022/05/02 00:39:33;;;;;;;;;;;;;;;;;;5015015;28;20407;-58
2022/05/02 00:41:58;;;;;;;;;;;;;;;;;;5033721;28;19925;-59
2022/05/02 00:44:23;;;;;;;;;;;;;;;;;;4997187;28;19952;-59
2022/05/02 00:46:51;;;;;;;;;;;;;;;;;;5012702;28;19982;-59
2022/05/02 00:49:17;;;;;;;;;;;;;;;;;;5014006;28;19932;-60
2022/05/02 00:51:47;;;;;;;;;;;;;;;;;;5034350;28;19917;-60
2022/05/02 00:54:15;;;;;;;;;;;;;;;;;;5031964;28;20300;-59
2022/05/02 00:56:41;;;;;;;;;;;;;;;;;;5032357;28;20171;-59
2022/05/02 00:59:06;;;;;;;;;;;;;;;;;;5013698;28;20601;-59
2022/05/02 01:01:31;;;;;;;;;;;;;;;;;;5032512;28;19920;-59
2022/05/02 01:03:57;;;;;;;;;;;;;;;;;;4996349;28;20020;-59
2022/05/02 01:09:11;;;;;;;;;;;;;;;;;;5034271;28;19935;-59
2022/05/02 01:11:39;;;;;;;;;;;;;;;;;;5033748;28;20035;-58
2022/05/02 01:14:04;;;;;;;;;;;;;;;;;;5032883;28;19923;-58
2022/05/02 01:16:32;;;;;;;;;;;;;;;;;;5033918;28;20632;-58
2022/05/02 01:19:02;;;;;;;;;;;;;;;;;;5012402;28;20387;-58
2022/05/02 01:21:27;;;;;;;;;;;;;;;;;;5010102;28;19921;-58
2022/05/02 01:23:52;;;;;;;;;;;;;;;;;;5012001;28;19924;-58
2022/05/02 01:26:18;;;;;;;;;;;;;;;;;;5032208;28;20830;-58
2022/05/02 01:28:45;;;;;;;;;;;;;;;;;;5031382;28;19921;-58
2022/05/02 01:31:10;;;;;;;;;;;;;;;;;;4996517;28;19927;-58
2022/05/02 01:33:36;;;;;;;;;;;;;;;;;;4998413;28;19921;-58
2022/05/02 01:36:01;;;;;;;;;;;;;;;;;;5035070;28;19966;-58
2022/05/02 01:38:27;;;;;;;;;;;;;;;;;;5033354;28;19928;-59
2022/05/02 01:40:55;;;;;;;;;;;;;;;;;;5015497;28;19958;-59
2022/05/02 01:43:20;;;;;;;;;;;;;;;;;;5014022;28;19916;-59
2022/05/02 01:45:47;;;;;;;;;;;;;;;;;;5034082;28;19924;-58
2022/05/02 01:48:12;;;;;;;;;;;;;;;;;;5015601;28;21679;-59
2022/05/02 01:50:40;;;;;;;;;;;;;;;;;;5032839;28;19917;-58
2022/05/02 01:53:05;;;;;;;;;;;;;;;;;;5012208;28;19921;-58
2022/05/02 01:55:30;;;;;;;;;;;;;;;;;;5013644;28;19970;-59
2022/05/02 01:57:56;;;;;;;;;;;;;;;;;;5013438;28;19921;-59
2022/05/02 02:00:23;;;;;;;;;;;;;;;;;;5033539;28;20499;-58
2022/05/02 02:02:49;;;;;;;;;;;;;;;;;;5035341;28;19932;-58
2022/05/02 02:08:03;;;;;;;;;;;;;;;;;;5014642;28;19921;-60
2022/05/02 02:10:30;;;;;;;;;;;;;;;;;;5019722;28;19928;-59
2022/05/02 02:12:56;;;;;;;;;;;;;;;;;;5016095;28;20406;-59
2022/05/02 02:15:26;;;;;;;;;;;;;;;;;;5016192;28;19924;-58
2022/05/02 02:17:54;;;;;;;;;;;;;;;;;;5008958;28;19931;-59
2022/05/02 02:20:21;;;;;;;;;;;;;;;;;;5037453;28;19916;-58
2022/05/02 02:22:47;;;;;;;;;;;;;;;;;;5036267;28;19932;-59
2022/05/02 02:25:12;;;;;;;;;;;;;;;;;;5037435;28;20295;-58
2022/05/02 02:27:39;;;;;;;;;;;;;;;;;;5037191;28;19916;-59
2022/05/02 02:30:04;;;;;;;;;;;;;;;;;;5036016;28;19931;-58
2022/05/02 02:32:32;;;;;;;;;;;;;;;;;;5016390;28;19925;-58
2022/05/02 02:35:00;;;;;;;;;;;;;;;;;;5017228;28;20423;-58
2022/05/02 02:37:27;;;;;;;;;;;;;;;;;;5015722;28;20002;-59
2022/05/02 02:39:52;;;;;;;;;;;;;;;;;;5014324;28;21824;-58
2022/05/02 02:42:22;;;;;;;;;;;;;;;;;;5036176;28;20373;-58
2022/05/02 02:44:50;;;;;;;;;;;;;;;;;;5015953;28;19921;-61
2022/05/02 02:47:16;;;;;;;;;;;;;;;;;;5015484;28;19917;-58
2022/05/02 02:49:41;;;;;;;;;;;;;;;;;;5017351;28;19928;-58
2022/05/02 02:52:09;;;;;;;;;;;;;;;;;;5015813;28;19920;-58
2022/05/02 02:54:34;;;;;;;;;;;;;;;;;;5013872;28;20634;-60
2022/05/02 02:57:01;;;;;;;;;;;;;;;;;;5034674;28;19932;-60
2022/05/02 02:59:27;;;;;;;;;;;;;;;;;;5015055;28;21468;-59
2022/05/02 03:01:53;;;;;;;;;;;;;;;;;;5034759;28;20007;-59
2022/05/02 03:07:05;;;;;;;;;;;;;;;;;;5034861;28;19921;-59
2022/05/02 03:09:30;;;;;;;;;;;;;;;;;;4997108;28;19936;-59
2022/05/02 03:11:57;;;;;;;;;;;;;;;;;;5015188;28;19921;-60
2022/05/02 03:14:23;;;;;;;;;;;;;;;;;;5034512;28;19943;-59
2022/05/02 03:16:50;;;;;;;;;;;;;;;;;;5022180;28;19925;-59
2022/05/02 03:19:18;;;;;;;;;;;;;;;;;;5001124;28;19925;-59
2022/05/02 03:21:43;;;;;;;;;;;;;;;;;;5033242;28;19923;-59
2022/05/02 03:24:09;;;;;;;;;;;;;;;;;;5015710;28;19925;-59
2022/05/02 03:26:36;;;;;;;;;;;;;;;;;;5016883;28;20007;-59
2022/05/02 03:29:02;;;;;;;;;;;;;;;;;;4999132;28;19920;-59
2022/05/02 03:31:29;;;;;;;;;;;;;;;;;;5000053;28;21050;-59
2022/05/02 03:33:54;;;;;;;;;;;;;;;;;;5037335;28;19923;-59
2022/05/02 03:36:20;;;;;;;;;;;;;;;;;;5010430;28;20803;-58
2022/05/02 03:38:45;;;;;;;;;;;;;;;;;;5011729;28;19952;-59
2022/05/02 03:41:13;;;;;;;;;;;;;;;;;;5015188;28;19920;-59
2022/05/02 03:43:42;;;;;;;;;;;;;;;;;;5035976;28;19952;-59
2022/05/02 03:46:07;;;;;;;;;;;;;;;;;;5016814;28;19972;-59
2022/05/02 03:48:35;;;;;;;;;;;;;;;;;;5016098;28;21010;-59
2022/05/02 03:51:03;;;;;;;;;;;;;;;;;;5015542;28;19920;-59
2022/05/02 03:53:28;;;;;;;;;;;;;;;;;;5035908;28;21888;-59
2022/05/02 03:55:58;;;;;;;;;;;;;;;;;;5034268;28;19925;-59
2022/05/02 03:58:26;;;;;;;;;;;;;;;;;;5010644;28;20012;-59
2022/05/02 04:00:56;;;;;;;;;;;;;;;;;;5033761;28;19927;-59
2022/05/02 04:03:21;;;;;;;;;;;;;;;;;;5013199;28;19921;-59
2022/05/02 04:05:47;;;;;;;;;;;;;;;;;;5034909;28;19966;-59
2022/05/02 04:08:15;;;;;;;;;;;;;;;;;;5033471;28;20054;-59
2022/05/02 04:10:43;;;;;;;;;;;;;;;;;;5034246;28;20542;-59
2022/05/02 04:13:10;;;;;;;;;;;;;;;;;;5015730;28;19916;-59
2022/05/02 04:15:36;;;;;;;;;;;;;;;;;;5034612;28;19958;-59
2022/05/02 04:18:03;;;;;;;;;;;;;;;;;;5036176;28;20003;-59
2022/05/02 04:20:31;;;;;;;;;;;;;;;;;;5017007;28;21874;-59
2022/05/02 04:22:56;;;;;;;;;;;;;;;;;;5035916;28;19917;-59
2022/05/02 04:25:22;;;;;;;;;;;;;;;;;;5035041;28;19939;-59
2022/05/02 04:27:50;;;;;;;;;;;;;;;;;;5034587;28;19978;-59
2022/05/02 04:30:18;;;;;;;;;;;;;;;;;;5035677;28;19921;-59
2022/05/02 04:32:46;;;;;;;;;;;;;;;;;;5033951;28;19966;-59
2022/05/02 04:35:11;;;;;;;;;;;;;;;;;;5014123;28;19962;-59
2022/05/02 04:37:39;;;;;;;;;;;;;;;;;;5013074;28;19920;-59
2022/05/02 04:40:04;;;;;;;;;;;;;;;;;;5033378;28;19925;-59
2022/05/02 04:42:32;;;;;;;;;;;;;;;;;;5034017;28;19939;-60
2022/05/02 04:44:57;;;;;;;;;;;;;;;;;;5034091;28;20059;-59
2022/05/02 04:47:23;;;;;;;;;;;;;;;;;;5034080;28;19973;-59
2022/05/02 04:49:50;;;;;;;;;;;;;;;;;;5035322;28;19916;-59
2022/05/02 04:52:16;;;;;;;;;;;;;;;;;;5014658;28;19927;-61
2022/05/02 04:54:41;;;;;;;;;;;;;;;;;;5015041;28;19940;-59
2022/05/02 04:57:06;;;;;;;;;;;;;;;;;;5011786;28;19924;-59
2022/05/02 04:59:34;;;;;;;;;;;;;;;;;;5033540;28;19921;-59
2022/05/02 05:01:59;;;;;;;;;;;;;;;;;;5033028;28;19920;-60
2022/05/02 05:04:29;;;;;;;;;;;;;;;;;;5010083;28;20207;-60
2022/05/02 05:06:55;;;;;;;;;;;;;;;;;;5033070;28;19921;-60
2022/05/02 05:09:21;;;;;;;;;;;;;;;;;;5032736;28;19978;-60
2022/05/02 05:11:51;;;;;;;;;;;;;;;;;;5031633;28;19921;-60
2022/05/02 05:17:01;;;;;;;;;;;;;;;;;;5028577;28;19996;-59
2022/05/02 05:19:28;;;;;;;;;;;;;;;;;;5029501;28;19921;-60
2022/05/02 05:21:59;;;;;;;;;;;;;;;;;;5033236;28;20046;-59
2022/05/02 05:24:24;;;;;;;;;;;;;;;;;;5015255;28;19931;-58
2022/05/02 05:26:55;;;;;;;;;;;;;;;;;;5011618;28;19920;-59
2022/05/02 05:29:20;;;;;;;;;;;;;;;;;;5012529;28;19951;-59
2022/05/02 05:31:45;;;;;;;;;;;;;;;;;;5033771;28;20513;-60
2022/05/02 05:34:15;;;;;;;;;;;;;;;;;;5034349;28;19932;-59
2022/05/02 05:36:45;;;;;;;;;;;;;;;;;;5011689;28;19920;-60
2022/05/02 05:39:10;;;;;;;;;;;;;;;;;;5013758;28;20440;-60
2022/05/02 05:44:52;;;;;;;;;;;;;;;;;;5033408;28;20318;-58
2022/05/02 05:47:18;;;;;;;;;;;;;;;;;;5013963;28;19920;-59
2022/05/02 05:49:47;;;;;;;;;;;;;;;;;;4998216;28;19928;-61
2022/05/02 05:52:12;;;;;;;;;;;;;;;;;;5015086;28;20416;-59
2022/05/02 05:54:38;;;;;;;;;;;;;;;;;;5033531;28;20012;-59
2022/05/02 05:57:05;;;;;;;;;;;;;;;;;;5012598;28;20779;-59
2022/05/02 05:59:35;;;;;;;;;;;;;;;;;;5012380;28;19925;-60
2022/05/02 06:02:01;;;;;;;;;;;;;;;;;;5033465;28;19920;-60
2022/05/02 06:04:26;;;;;;;;;;;;;;;;;;5012521;28;19920;-60
2022/05/02 06:06:54;;;;;;;;;;;;;;;;;;5033384;28;19925;-60
2022/05/02 06:09:19;;;;;;;;;;;;;;;;;;5012540;28;19994;-60
2022/05/02 06:11:45;;;;;;;;;;;;;;;;;;5031853;28;19921;-61
2022/05/02 06:14:11;;;;;;;;;;;;;;;;;;5033052;28;19916;-60
2022/05/02 06:19:20;;;;;;;;;;;;;;;;;;5014912;28;19955;-60
2022/05/02 06:21:48;;;;;;;;;;;;;;;;;;5005463;28;20035;-61
2022/05/02 06:24:13;;;;;;;;;;;;;;;;;;5033014;28;19927;-60
2022/05/02 06:26:38;;;;;;;;;;;;;;;;;;5033951;28;20579;-60
2022/05/02 06:29:03;;;;;;;;;;;;;;;;;;5013920;28;20661;-60
2022/05/02 06:31:29;;;;;;;;;;;;;;;;;;5013210;28;19955;-60
2022/05/02 06:33:59;;;;;;;;;;;;;;;;;;5034303;28;19917;-60
2022/05/02 06:36:24;;;;;;;;;;;;;;;;;;5032719;28;19947;-60
2022/05/02 06:38:52;;;;;;;;;;;;;;;;;;5034141;28;20287;-60
2022/05/02 06:41:17;;;;;;;;;;;;;;;;;;5011713;28;19925;-61
2022/05/02 06:43:45;;;;;;;;;;;;;;;;;;5014754;28;19928;-60
2022/05/02 06:46:13;;;;;;;;;;;;;;;;;;5015101;28;19970;-60
2022/05/02 06:48:38;;;;;;;;;;;;;;;;;;5037167;28;19920;-60
2022/05/02 06:51:07;;;;;;;;;;;;;;;;;;5038148;28;19917;-60
2022/05/02 06:53:33;;;;;;;;;;;;;;;;;;5016943;28;19921;-60
2022/05/02 06:56:01;;;;;;;;;;;;;;;;;;5037745;28;20040;-60
2022/05/02 06:58:26;;;;;;;;;;;;;;;;;;4996604;28;19921;-60
2022/05/02 07:00:56;;;;;;;;;;;;;;;;;;5036725;28;19928;-60
2022/05/02 07:03:25;;;;;;;;;;;;;;;;;;5036388;28;19916;-61
2022/05/02 07:05:51;;;;;;;;;;;;;;;;;;5036713;28;19971;-61
2022/05/02 07:08:18;;;;;;;;;;;;;;;;;;5036412;28;19924;-61
2022/05/02 07:10:46;;;;;;;;;;;;;;;;;;5035966;28;19916;-61
2022/05/02 07:13:15;;;;;;;;;;;;;;;;;;5035408;28;19917;-61
2022/05/02 07:15:42;;;;;;;;;;;;;;;;;;5015465;28;19931;-60
2022/05/02 07:18:10;;;;;;;;;;;;;;;;;;4998425;28;19916;-60
2022/05/02 07:20:35;;;;;;;;;;;;;;;;;;5037165;28;19932;-60
2022/05/02 07:23:01;;;;;;;;;;;;;;;;;;5037196;28;20334;-60
2022/05/02 07:25:26;;;;;;;;;;;;;;;;;;5036107;28;19920;-60
2022/05/02 07:27:54;;;;;;;;;;;;;;;;;;5013238;28;19921;-60
2022/05/02 07:30:21;;;;;;;;;;;;;;;;;;5009419;28;19932;-61
2022/05/02 07:32:49;;;;;;;;;;;;;;;;;;5037372;28;19916;-61
2022/05/02 07:35:14;;;;;;;;;;;;;;;;;;5011487;28;19923;-61
2022/05/02 07:37:40;;;;;;;;;;;;;;;;;;5036746;28;20375;-61
2022/05/02 07:40:06;;;;;;;;;;;;;;;;;;5036509;28;19920;-61
2022/05/02 07:42:34;;;;;;;;;;;;;;;;;;5016505;28;19921;-61
2022/05/02 07:44:59;;;;;;;;;;;;;;;;;;5035337;28;19917;-60
2022/05/02 07:47:25;;;;;;;;;;;;;;;;;;5036489;28;19927;-61
2022/05/02 07:49:53;;;;;;;;;;;;;;;;;;5016761;28;19916;-60
2022/05/02 07:52:24;;;;;;;;;;;;;;;;;;4996965;28;19940;-61
2022/05/02 07:54:52;;;;;;;;;;;;;;;;;;5036257;28;20868;-61
2022/05/02 07:57:19;;;;;;;;;;;;;;;;;;5036073;28;19955;-61
2022/05/02 07:59:44;;;;;;;;;;;;;;;;;;5006690;28;19921;-61
2022/05/02 08:02:12;;;;;;;;;;;;;;;;;;5035512;28;19927;-61
2022/05/02 08:04:37;;;;;;;;;;;;;;;;;;5016496;28;20143;-61
2022/05/02 08:07:06;;;;;;;;;;;;;;;;;;4999093;28;19939;-61
2022/05/02 08:09:31;;;;;;;;;;;;;;;;;;5033170;28;20098;-62
2022/05/02 08:11:59;;;;;;;;;;;;;;;;;;5013563;28;19921;-62
2022/05/02 08:14:24;;;;;;;;;;;;;;;;;;5034865;28;19923;-62
2022/05/02 08:16:52;;;;;;;;;;;;;;;;;;5015563;28;20019;-61
2022/05/02 08:19:17;;;;;;;;;;;;;;;;;;5015455;28;19931;-62
2022/05/02 08:21:45;;;;;;;;;;;;;;;;;;5034756;28;20367;-62
2022/05/02 08:27:15;;;;;;;;;;;;;;;;;;5035011;28;19929;-62
2022/05/02 08:29:43;;;;;;;;;;;;;;;;;;5015306;28;19916;-62
2022/05/02 08:32:10;;;;;;;;;;;;;;;;;;5013072;28;20007;-62
2022/05/02 08:34:35;;;;;;;;;;;;;;;;;;5035888;28;20205;-62
2022/05/02 08:37:03;;;;;;;;;;;;;;;;;;5015435;28;19924;-62
2022/05/02 08:39:30;;;;;;;;;;;;;;;;;;5035302;28;19920;-62
2022/05/02 08:42:01;;;;;;;;;;;;;;;;;;5015540;28;19916;-62
2022/05/02 08:44:29;;;;;;;;;;;;;;;;;;5013961;28;19921;-61
2022/05/02 08:46:54;;;;;;;;;;;;;;;;;;5013770;28;19928;-62
2022/05/02 08:49:40;;;;;;;;;;;;;;;;;;5032234;28;19920;-62
2022/05/02 08:52:05;;;;;;;;;;;;;;;;;;5014347;28;19928;-62
2022/05/02 08:54:30;;;;;;;;;;;;;;;;;;5034824;28;19921;-62
2022/05/02 08:56:57;;;;;;;;;;;;;;;;;;5034907;28;19923;-62
2022/05/02 08:59:24;;;;;;;;;;;;;;;;;;5019098;28;19921;-62
2022/05/02 09:01:52;;;;;;;;;;;;;;;;;;5013892;28;20531;-62
2022/05/02 09:04:20;;;;;;;;;;;;;;;;;;5034657;28;19916;-62
2022/05/02 09:06:45;;;;;;;;;;;;;;;;;;5033814;28;19959;-62
2022/05/02 09:09:10;;;;;;;;;;;;;;;;;;5034682;28;20005;-62
2022/05/02 09:11:40;;;;;;;;;;;;;;;;;;5033820;28;19923;-63
2022/05/02 09:14:10;;;;;;;;;;;;;;;;;;4998905;28;19920;-62
2022/05/02 09:16:35;;;;;;;;;;;;;;;;;;5032825;28;20039;-62
2022/05/02 09:19:03;;;;;;;;;;;;;;;;;;5010767;28;19942;-61
2022/05/02 09:21:30;;;;;;;;;;;;;;;;;;5012730;28;19920;-61
2022/05/02 09:23:58;;;;;;;;;;;;;;;;;;5014890;28;19920;-62
2022/05/02 09:26:23;;;;;;;;;;;;;;;;;;4996813;28;19963;-62
2022/05/02 09:28:49;;;;;;;;;;;;;;;;;;5034217;28;19920;-62
2022/05/02 09:31:14;;;;;;;;;;;;;;;;;;5033324;28;20323;-62
2022/05/02 09:33:41;;;;;;;;;;;;;;;;;;5014409;28;20282;-62
2022/05/02 09:36:07;;;;;;;;;;;;;;;;;;5034334;28;20036;-61
2022/05/02 09:38:35;;;;;;;;;;;;;;;;;;5034076;28;19971;-61
2022/05/02 09:41:02;;;;;;;;;;;;;;;;;;5013495;28;19948;-61
2022/05/02 09:49:33;;;;;;;;;;;;;;;;;;5033270;28;20499;-63
2022/05/02 09:51:28;;;;;;;;;;;;;;;;;;5012959;28;19921;-62
2022/05/02 09:53:54;;;;;;;;;;;;;;;;;;5013193;28;20211;-62
2022/05/02 09:56:40;;;;;;;;;;;;;;;;;;5013479;28;19912;-63
2022/05/02 09:59:07;;;;;;;;;;;;;;;;;;5032606;28;20504;-61
2022/05/02 10:01:34;;;;;;;;;;;;;;;;;;5032449;28;19916;-61
2022/05/02 10:04:01;;;;;;;;;;;;;;;;;;5013187;28;19916;-62
2022/05/02 10:06:27;;;;;;;;;;;;;;;;;;5013689;28;20403;-62
2022/05/02 10:08:52;;;;;;;;;;;;;;;;;;5032240;28;20020;-63
2022/05/02 10:11:20;;;;;;;;;;;;;;;;;;5013230;28;19921;-62
2022/05/02 10:13:47;;;;;;;;;;;;;;;;;;5014328;28;20311;-63
2022/05/02 10:16:12;;;;;;;;;;;;;;;;;;5032716;28;19969;-63
2022/05/02 10:18:38;;;;;;;;;;;;;;;;;;4996426;28;20111;-62
2022/05/02 10:21:06;;;;;;;;;;;;;;;;;;5012539;28;19916;-63
2022/05/02 10:23:34;;;;;;;;;;;;;;;;;;5035508;28;20964;-62
2022/05/02 10:26:02;;;;;;;;;;;;;;;;;;5034658;28;20011;-62
2022/05/02 10:28:27;;;;;;;;;;;;;;;;;;5015560;28;19954;-62
2022/05/02 10:30:55;;;;;;;;;;;;;;;;;;5036486;28;19921;-63
2022/05/02 10:33:20;;;;;;;;;;;;;;;;;;5036319;28;19978;-63
2022/05/02 10:35:46;;;;;;;;;;;;;;;;;;4999920;28;19967;-63
2022/05/02 10:38:16;;;;;;;;;;;;;;;;;;5000433;28;19956;-63
2022/05/02 10:40:41;;;;;;;;;;;;;;;;;;5036291;28;19924;-62
2022/05/02 10:43:07;;;;;;;;;;;;;;;;;;5017924;28;19932;-62
2022/05/02 10:45:34;;;;;;;;;;;;;;;;;;5017015;28;20277;-62
2022/05/02 10:47:59;;;;;;;;;;;;;;;;;;5036803;28;19932;-62
2022/05/02 10:50:25;;;;;;;;;;;;;;;;;;5033656;28;19975;-62
2022/05/02 10:53:00;;;;;;;;;;;;;;;;;;5014569;28;19925;-62
2022/05/02 10:55:26;;;;;;;;;;;;;;;;;;5036299;28;19920;-62
2022/05/02 10:57:52;;;;;;;;;;;;;;;;;;5035900;28;20299;-62
2022/05/02 11:00:18;;;;;;;;;;;;;;;;;;4999653;28;19919;-63
2022/05/02 11:02:44;;;;;;;;;;;;;;;;;;5036473;28;19921;-62
2022/05/02 11:05:09;;;;;;;;;;;;;;;;;;5037052;28;20517;-63
2022/05/02 11:07:35;;;;;;;;;;;;;;;;;;5037071;28;19940;-62
2022/05/02 11:10:00;;;;;;;;;;;;;;;;;;5036515;28;19931;-62
2022/05/02 11:12:28;;;;;;;;;;;;;;;;;;5035308;28;19920;-63
2022/05/02 11:14:53;;;;;;;;;;;;;;;;;;5035947;28;19929;-62
2022/05/02 11:17:19;;;;;;;;;;;;;;;;;;5036607;28;19916;-63
2022/05/02 11:22:28;;;;;;;;;;;;;;;;;;5035728;28;20573;-62
2022/05/02 11:24:56;;;;;;;;;;;;;;;;;;5035784;28;19940;-61
2022/05/02 11:27:21;;;;;;;;;;;;;;;;;;5034589;28;20469;-62
2022/05/02 11:29:50;;;;;;;;;;;;;;;;;;5034266;28;20891;-62
2022/05/02 11:32:17;;;;;;;;;;;;;;;;;;5035577;28;19933;-63
2022/05/02 11:34:42;;;;;;;;;;;;;;;;;;5034126;28;19928;-65
2022/05/02 11:37:07;;;;;;;;;;;;;;;;;;4999246;28;20055;-63
2022/05/02 11:39:36;;;;;;;;;;;;;;;;;;5016403;28;20585;-62
2022/05/02 11:42:01;;;;;;;;;;;;;;;;;;4998910;28;20019;-63
2022/05/02 11:44:28;;;;;;;;;;;;;;;;;;5034360;28;20009;-61
2022/05/02 11:46:58;;;;;;;;;;;;;;;;;;5035872;28;19939;-62
2022/05/02 11:49:26;;;;;;;;;;;;;;;;;;5035090;28;20580;-63
2022/05/02 11:51:52;;;;;;;;;;;;;;;;;;5035993;28;19921;-63
2022/05/02 11:54:17;;;;;;;;;;;;;;;;;;5035821;28;20952;-63
2022/05/02 11:56:45;;;;;;;;;;;;;;;;;;5035620;28;19967;-62
2022/05/02 11:59:10;;;;;;;;;;;;;;;;;;5014742;28;20408;-62
2022/05/02 12:01:37;;;;;;;;;;;;;;;;;;5012575;28;19920;-62
2022/05/02 12:04:03;;;;;;;;;;;;;;;;;;5035064;28;20339;-62
2022/05/02 12:06:28;;;;;;;;;;;;;;;;;;5034677;28;19931;-61
2022/05/02 12:08:54;;;;;;;;;;;;;;;;;;5035233;28;19936;-63
2022/05/02 12:11:20;;;;;;;;;;;;;;;;;;5035317;28;19921;-62
2022/05/02 12:13:47;;;;;;;;;;;;;;;;;;5004919;28;19917;-64
2022/05/02 12:16:13;;;;;;;;;;;;;;;;;;4996166;28;20474;-63
2022/05/02 12:18:39;;;;;;;;;;;;;;;;;;5035542;28;20303;-62
2022/05/02 12:21:05;;;;;;;;;;;;;;;;;;4999934;28;19947;-62
2022/05/02 12:23:31;;;;;;;;;;;;;;;;;;5034841;28;19964;-62
2022/05/02 12:25:59;;;;;;;;;;;;;;;;;;5034709;28;19936;-61
2022/05/02 12:28:24;;;;;;;;;;;;;;;;;;5010226;28;19917;-62
2022/05/02 12:30:50;;;;;;;;;;;;;;;;;;5016600;28;19967;-62
2022/05/02 12:33:21;;;;;;;;;;;;;;;;;;5013904;28;19921;-62
2022/05/02 12:35:51;;;;;;;;;;;;;;;;;;5017190;28;20534;-63
2022/05/02 12:38:16;;;;;;;;;;;;;;;;;;5014384;28;19924;-62
2022/05/02 12:40:44;;;;;;;;;;;;;;;;;;5034851;28;19954;-62
2022/05/02 12:43:12;;;;;;;;;;;;;;;;;;5035586;28;19936;-61
2022/05/02 12:45:37;;;;;;;;;;;;;;;;;;5015594;28;20364;-62
2022/05/02 12:48:10;;;;;;;;;;;;;;;;;;5014890;28;19932;-62
2022/05/02 12:50:37;;;;;;;;;;;;;;;;;;5032268;28;19931;-62
2022/05/02 12:53:05;;;;;;;;;;;;;;;;;;5034358;28;20859;-62
2022/05/02 12:55:30;;;;;;;;;;;;;;;;;;5015053;28;19970;-61
2022/05/02 13:00:40;;;;;;;;;;;;;;;;;;5014974;28;20355;-62
2022/05/02 13:03:05;;;;;;;;;;;;;;;;;;5033864;28;19920;-63
2022/05/02 13:05:33;;;;;;;;;;;;;;;;;;5011616;28;20384;-62
2022/05/02 13:07:59;;;;;;;;;;;;;;;;;;5012978;28;19928;-63
2022/05/02 13:10:24;;;;;;;;;;;;;;;;;;4998349;28;20338;-62
2022/05/02 13:12:49;;;;;;;;;;;;;;;;;;5015263;28;20011;-62
2022/05/02 13:15:17;;;;;;;;;;;;;;;;;;5014681;28;19916;-62
2022/05/02 13:17:45;;;;;;;;;;;;;;;;;;5034294;28;19921;-62
2022/05/02 13:20:11;;;;;;;;;;;;;;;;;;5034987;28;19916;-62
2022/05/02 13:22:36;;;;;;;;;;;;;;;;;;5013874;28;19954;-61
2022/05/02 13:25:04;;;;;;;;;;;;;;;;;;5014476;28;19917;-62
2022/05/02 13:27:32;;;;;;;;;;;;;;;;;;5014299;28;20693;-62
2022/05/02 13:29:58;;;;;;;;;;;;;;;;;;5013697;28;19980;-63
2022/05/02 13:32:23;;;;;;;;;;;;;;;;;;5012947;28;20547;-63
2022/05/02 13:34:52;;;;;;;;;;;;;;;;;;5014025;28;19942;-63
2022/05/02 13:37:17;;;;;;;;;;;;;;;;;;5011459;28;20454;-62
2022/05/02 13:43:01;;;;;;;;;;;;;;;;;;5033077;28;21827;-62
2022/05/02 13:45:28;;;;;;;;;;;;;;;;;;5032516;28;19944;-62
2022/05/02 13:47:53;;;;;;;;;;;;;;;;;;5013169;28;19931;-62
2022/05/02 13:50:19;;;;;;;;;;;;;;;;;;5030105;28;21812;-61
2022/05/02 13:52:47;;;;;;;;;;;;;;;;;;5032938;28;19916;-61
2022/05/02 13:55:13;;;;;;;;;;;;;;;;;;5012853;28;19966;-63
2022/05/02 13:57:45;;;;;;;;;;;;;;;;;;5017485;28;19952;-63
2022/05/02 14:03:01;;;;;;;;;;;;;;;;;;5005449;28;19921;-63
2022/05/02 14:05:31;;;;;;;;;;;;;;;;;;5017351;28;20393;-63
2022/05/02 14:07:57;;;;;;;;;;;;;;;;;;5018952;28;19978;-63
2022/05/02 14:10:24;;;;;;;;;;;;;;;;;;5016717;28;20178;-63
2022/05/02 14:12:52;;;;;;;;;;;;;;;;;;5037727;28;19932;-63
2022/05/02 14:15:18;;;;;;;;;;;;;;;;;;5038040;28;20101;-63
2022/05/02 14:17:46;;;;;;;;;;;;;;;;;;5018908;28;19913;-63
2022/05/02 14:20:13;;;;;;;;;;;;;;;;;;5035298;28;19928;-62
2022/05/02 14:22:43;;;;;;;;;;;;;;;;;;5035910;28;19917;-63
2022/05/02 14:25:08;;;;;;;;;;;;;;;;;;5016338;28;19920;-62
2022/05/02 14:27:37;;;;;;;;;;;;;;;;;;4996977;28;19924;-63
2022/05/02 14:30:05;;;;;;;;;;;;;;;;;;5036846;28;20514;-63
2022/05/02 14:32:30;;;;;;;;;;;;;;;;;;5014081;28;19967;-62
2022/05/02 14:35:01;;;;;;;;;;;;;;;;;;5016988;28;19916;-63
2022/05/02 14:37:26;;;;;;;;;;;;;;;;;;5013722;28;20423;-62
2022/05/02 14:39:54;;;;;;;;;;;;;;;;;;5015987;28;19928;-62
2022/05/02 14:42:19;;;;;;;;;;;;;;;;;;5033948;28;19920;-63
2022/05/02 14:44:44;;;;;;;;;;;;;;;;;;5035438;28;20002;-62
2022/05/02 14:47:10;;;;;;;;;;;;;;;;;;5035599;28;20475;-62
2022/05/02 14:49:37;;;;;;;;;;;;;;;;;;5015058;28;20032;-62
2022/05/02 14:52:06;;;;;;;;;;;;;;;;;;5016183;28;21920;-61
2022/05/02 14:54:34;;;;;;;;;;;;;;;;;;5035895;28;21835;-62
2022/05/02 14:56:59;;;;;;;;;;;;;;;;;;4993331;28;19927;-62
2022/05/02 14:59:25;;;;;;;;;;;;;;;;;;5012506;28;19967;-62
2022/05/02 15:01:50;;;;;;;;;;;;;;;;;;5034401;28;19956;-61
2022/05/02 15:04:15;;;;;;;;;;;;;;;;;;5036531;28;20743;-62
2022/05/02 15:06:41;;;;;;;;;;;;;;;;;;5017897;28;19920;-62
2022/05/02 15:09:08;;;;;;;;;;;;;;;;;;5014704;28;19924;-62
2022/05/02 15:11:34;;;;;;;;;;;;;;;;;;5035869;28;20808;-62
2022/05/02 15:13:59;;;;;;;;;;;;;;;;;;5035806;28;20385;-61
2022/05/02 15:16:24;;;;;;;;;;;;;;;;;;5035823;28;20544;-61
2022/05/02 15:21:36;;;;;;;;;;;;;;;;;;5036132;28;19917;-61
2022/05/02 15:24:01;;;;;;;;;;;;;;;;;;5016722;28;20400;-61
2022/05/02 15:26:29;;;;;;;;;;;;;;;;;;5014113;28;19925;-61
2022/05/02 15:37:08;;;;;;;;;;;;;;;;;;5035225;28;20557;-61
2022/05/02 15:39:36;;;;;;;;;;;;;;;;;;4998714;28;20308;-61
2022/05/02 15:42:06;;;;;;;;;;;;;;;;;;5014426;28;19979;-61
2022/05/02 15:44:35;;;;;;;;;;;;;;;;;;5022501;28;19929;-62
2022/05/02 15:47:05;;;;;;;;;;;;;;;;;;5015225;28;19924;-60
2022/05/02 15:49:31;;;;;;;;;;;;;;;;;;5001706;28;19964;-60
2022/05/02 15:51:56;;;;;;;;;;;;;;;;;;5016200;28;19920;-60
2022/05/02 15:54:22;;;;;;;;;;;;;;;;;;5035967;28;20272;-63
2022/05/02 15:56:47;;;;;;;;;;;;;;;;;;4999089;28;19920;-62
2022/05/02 15:59:13;;;;;;;;;;;;;;;;;;5016434;28;20387;-61
2022/05/02 16:01:38;;;;;;;;;;;;;;;;;;5014261;28;21243;-62
2022/05/02 16:04:03;;;;;;;;;;;;;;;;;;5035424;28;20011;-61
2022/05/02 16:06:31;;;;;;;;;;;;;;;;;;5034136;28;19981;-62
2022/05/02 16:11:43;;;;;;;;;;;;;;;;;;5015907;28;20056;-61
2022/05/02 16:14:08;;;;;;;;;;;;;;;;;;4989511;28;19952;-61
2022/05/02 16:16:37;;;;;;;;;;;;;;;;;;4981795;28;19921;-61
2022/05/02 16:19:03;;;;;;;;;;;;;;;;;;5015292;28;20062;-64
2022/05/02 16:21:29;;;;;;;;;;;;;;;;;;4980949;28;20031;-61
2022/05/02 16:23:54;;;;;;;;;;;;;;;;;;5016371;28;20288;-61
2022/05/02 16:26:20;;;;;;;;;;;;;;;;;;4981753;28;20784;-60
2022/05/02 16:28:48;;;;;;;;;;;;;;;;;;5015712;28;19939;-60
2022/05/02 16:31:13;;;;;;;;;;;;;;;;;;4981652;28;20707;-60
2022/05/02 16:33:38;;;;;;;;;;;;;;;;;;5013725;28;19921;-60
2022/05/02 16:36:06;;;;;;;;;;;;;;;;;;4998830;28;19917;-63
2022/05/02 16:38:31;;;;;;;;;;;;;;;;;;4985189;28;20572;-60
2022/05/02 16:40:57;;;;;;;;;;;;;;;;;;4981524;28;20620;-60
2022/05/02 16:43:22;;;;;;;;;;;;;;;;;;4980563;28;19921;-60
2022/05/02 16:45:51;;;;;;;;;;;;;;;;;;5015796;28;19927;-60
2022/05/02 16:48:21;;;;;;;;;;;;;;;;;;5004530;28;19965;-60
2022/05/02 16:50:51;;;;;;;;;;;;;;;;;;5014379;28;19924;-60
2022/05/02 16:53:19;;;;;;;;;;;;;;;;;;5013864;28;19924;-60
2022/05/02 16:55:47;;;;;;;;;;;;;;;;;;5015206;28;19920;-63
2022/05/02 16:58:14;;;;;;;;;;;;;;;;;;5015271;28;19998;-61
2022/05/02 17:00:49;;;;;;;;;;;;;;;;;;4980737;28;21523;-61
2022/05/02 17:03:14;;;;;;;;;;;;;;;;;;4997165;28;21846;-61
2022/05/02 17:05:44;;;;;;;;;;;;;;;;;;5015123;28;19917;-60
2022/05/02 17:08:09;;;;;;;;;;;;;;;;;;5014647;28;20035;-61
2022/05/02 17:10:35;;;;;;;;;;;;;;;;;;5015885;28;19933;-61
2022/05/02 17:13:00;;;;;;;;;;;;;;;;;;5007225;28;19941;-61
2022/05/02 17:15:28;;;;;;;;;;;;;;;;;;5032771;28;19940;-61
2022/05/02 17:17:56;;;;;;;;;;;;;;;;;;5034176;28;20011;-62
2022/05/02 17:20:21;;;;;;;;;;;;;;;;;;5016333;28;19920;-61
2022/05/02 17:22:47;;;;;;;;;;;;;;;;;;5015298;28;21496;-62
2022/05/02 17:25:14;;;;;;;;;;;;;;;;;;5017068;28;19917;-60
2022/05/02 17:27:42;;;;;;;;;;;;;;;;;;5031589;28;20414;-60
2022/05/02 17:30:12;;;;;;;;;;;;;;;;;;5014583;28;19921;-60
2022/05/02 19:31:44;;;;;;;;;;;;;;;;;;5035814;28;19927;-59